Time;durP1;ratioP1;P1;durP2;ratioP2;P2;SDS_P1;SDS_P2;PMS_P1;PMS_P2;Temp;Humidity;BMP_temperature;BMP_pressure;BME280_temperature;BME280_humidity;BME280_pressure;Samples;Min_cycle;Max_cycle;Signal;HPM_P1;HPM_P2
2022/06/23 00:01:57;;;;;;;8.70;6.57;;;;;;;18.88;nan;100111.00;4989283;28;20045;-72
2022/06/23 00:04:26;;;;;;;9.02;7.13;;;;;;;18.87;nan;100118.19;4981424;28;20047;-72
2022/06/23 00:06:58;;;;;;;9.23;6.93;;;;;;;18.84;nan;100112.47;4989099;28;20423;-71
2022/06/23 00:09:45;;;;;;;8.27;6.70;;;;;;;18.79;nan;100118.47;4988458;28;20451;-72
2022/06/23 00:12:25;;;;;;;;;;;;;;;18.72;nan;100120.31;4987506;28;20350;-71
2022/06/23 00:15:16;;;;;;;9.60;6.88;;;;;;;18.70;nan;100118.91;4988407;28;19945;-71
2022/06/23 00:17:45;;;;;;;10.93;7.93;;;;;;;18.71;nan;100110.66;4976356;28;20125;-71
2022/06/23 00:20:41;;;;;;;11.13;7.45;;;;;;;18.73;nan;100110.41;4967921;28;20070;-71
2022/06/23 00:23:13;;;;;;;7.22;6.18;;;;;;;18.88;nan;100116.34;4986085;28;20522;-74
2022/06/23 00:26:00;;;;;;;7.18;6.13;;;;;;;18.96;nan;100121.44;4983869;28;20477;-74
2022/06/23 00:28:58;;;;;;;5.25;4.72;;;;;;;19.04;nan;100128.38;4982758;28;20554;-74
2022/06/23 00:31:37;;;;;;;6.35;5.28;;;;;;;19.07;nan;100127.97;4982956;28;20403;-74
2022/06/23 00:34:14;;;;;;;7.15;5.63;;;;;;;19.09;nan;100116.00;4986369;28;20775;-74
2022/06/23 00:36:46;;;;;;;8.10;5.32;;;;;;;19.12;nan;100114.72;4987620;28;20394;-74
2022/06/23 00:39:28;;;;;;;6.70;5.72;;;;;;;19.15;nan;100114.28;4986258;28;20438;-74
2022/06/23 00:41:54;;;;;;;7.53;5.68;;;;;;;19.14;nan;100117.19;4986073;28;20425;-73
2022/06/23 00:44:34;;;;;;;6.63;5.57;;;;;;;19.15;nan;100125.00;4987058;28;20407;-74
2022/06/23 00:47:04;;;;;;;9.63;7.22;;;;;;;19.02;nan;100120.59;4987826;28;20035;-71
2022/06/23 00:49:44;;;;;;;8.07;6.13;;;;;;;18.94;nan;100120.81;4988730;28;20041;-71
2022/06/23 00:52:38;;;;;;;8.33;7.10;;;;;;;18.89;nan;100113.44;4986164;28;20484;-72
2022/06/23 00:55:13;;;;;;;9.50;7.28;;;;;;;18.88;nan;100111.00;4986531;28;20523;-71
2022/06/23 00:57:47;;;;;;;10.32;6.72;;;;;;;18.84;nan;100097.19;4987061;28;20034;-72
2022/06/23 01:00:38;;;;;;;11.02;7.88;;;;;;;18.80;nan;100097.84;4987627;28;20318;-72
2022/06/23 01:03:16;;;;;;;10.20;7.90;;;;;;;18.75;nan;100085.06;4987812;28;20097;-72
2022/06/23 01:05:49;;;;;;;11.65;8.93;;;;;;;18.71;nan;100080.34;4970604;28;20041;-73
2022/06/23 01:08:28;;;;;;;8.75;7.85;;;;;;;18.81;nan;100086.91;4985137;28;20566;-73
2022/06/23 01:11:01;;;;;;;11.10;7.20;;;;;;;18.71;nan;100088.38;4987241;28;20460;-72
2022/06/23 01:13:40;;;;;;;9.73;7.20;;;;;;;18.65;nan;100085.53;4987428;28;20050;-71
2022/06/23 01:16:08;;;;;;;9.30;6.95;;;;;;;18.62;nan;100093.19;4988102;28;20046;-72
2022/06/23 01:18:48;;;;;;;10.25;7.90;;;;;;;18.61;nan;100104.94;4986624;28;20038;-72
2022/06/23 01:21:20;;;;;;;11.88;8.60;;;;;;;18.61;nan;100108.41;4987911;28;20042;-71
2022/06/23 01:24:04;;;;;;;9.73;8.52;;;;;;;18.58;nan;100105.38;4969686;28;20243;-71
2022/06/23 01:26:47;;;;;;;12.45;8.10;;;;;;;18.57;nan;100098.38;4987615;28;20050;-71
2022/06/23 01:29:15;;;;;;;9.73;7.38;;;;;;;18.54;nan;100093.44;4988457;28;20136;-71
2022/06/23 01:31:52;;;;;;;9.05;7.20;;;;;;;18.53;nan;100097.16;4986840;28;20057;-74
2022/06/23 01:34:29;;;;;;;8.00;6.35;;;;;;;18.49;nan;100103.97;4986897;28;20034;-72
2022/06/23 01:37:30;;;;;;;7.30;6.18;;;;;;;18.46;nan;100097.19;4988752;28;20038;-71
2022/06/23 01:40:05;;;;;;;9.23;6.57;;;;;;;18.43;nan;100100.31;4986902;28;20150;-71
2022/06/23 01:42:47;;;;;;;8.25;6.32;;;;;;;18.40;nan;100098.03;4987840;28;20034;-72
2022/06/23 01:45:34;;;;;;;8.43;6.72;;;;;;;18.38;nan;100098.25;4986564;28;20042;-71
2022/06/23 01:48:53;;;;;;;9.07;6.28;;;;;;;18.35;nan;100108.56;4986983;28;20117;-71
2022/06/23 01:51:20;;;;;;;11.27;8.50;;;;;;;18.32;nan;100114.34;4949268;28;20064;-71
2022/06/23 01:53:46;;;;;;;9.65;7.03;;;;;;;18.28;nan;100119.28;4987656;28;20112;-71
2022/06/23 01:56:22;;;;;;;7.55;6.28;;;;;;;18.24;nan;100116.22;4989405;28;20034;-72
2022/06/23 01:59:05;;;;;;;7.80;6.93;;;;;;;18.22;nan;100118.28;4988894;28;20042;-72
2022/06/23 02:01:46;;;;;;;5.88;5.18;;;;;;;18.19;nan;100117.91;4986663;28;20050;-71
2022/06/23 02:04:19;;;;;;;5.97;4.40;;;;;;;18.14;nan;100131.09;4989384;28;20034;-72
2022/06/23 02:06:55;;;;;;;5.40;4.72;;;;;;;18.10;nan;100141.41;4973828;28;20541;-72
2022/06/23 02:09:29;;;;;;;5.57;4.55;;;;;;;18.07;nan;100138.31;4988808;28;20038;-72
2022/06/23 02:11:55;;;;;;;6.10;4.82;;;;;;;18.03;nan;100138.75;4990710;28;20473;-71
2022/06/23 02:14:46;;;;;;;7.70;5.88;;;;;;;18.02;nan;100131.75;4990503;28;20121;-71
2022/06/23 02:17:27;;;;;;;5.53;4.95;;;;;;;17.99;nan;100134.81;4990460;28;20140;-71
2022/06/23 02:19:55;;;;;;;7.07;5.80;;;;;;;17.97;nan;100136.06;4989538;28;20121;-71
2022/06/23 02:22:36;;;;;;;7.57;6.57;;;;;;;17.93;nan;100153.59;4980725;28;20045;-71
2022/06/23 02:25:13;;;;;;;7.63;6.40;;;;;;;17.88;nan;100143.53;4988693;28;20031;-71
2022/06/23 02:27:39;;;;;;;7.65;5.40;;;;;;;17.83;nan;100141.47;4991027;28;20128;-72
2022/06/23 02:30:12;;;;;;;5.15;4.65;;;;;;;17.82;nan;100153.19;4992556;28;20134;-71
2022/06/23 02:32:56;;;;;;;5.70;4.75;;;;;;;17.77;nan;100155.63;4992249;28;20037;-72
2022/06/23 02:35:31;;;;;;;5.70;5.20;;;;;;;17.77;nan;100157.50;4981070;28;20027;-71
2022/06/23 02:38:01;;;;;;;5.05;4.30;;;;;;;17.77;nan;100152.97;4989888;28;20030;-72
2022/06/23 02:40:36;;;;;;;4.82;4.00;;;;;;;17.79;nan;100147.41;4987371;28;20042;-71
2022/06/23 02:43:25;;;;;;;5.20;4.50;;;;;;;17.81;nan;100154.22;4989849;28;20042;-71
2022/06/23 02:46:09;;;;;;;4.55;4.03;;;;;;;17.84;nan;100147.63;4988856;28;20093;-72
2022/06/23 02:49:01;;;;;;;5.72;3.50;;;;;;;17.85;nan;100153.81;4989087;28;20046;-72
2022/06/23 02:52:13;;;;;;;5.18;4.03;;;;;;;17.81;nan;100156.09;4977854;28;20443;-72
2022/06/23 02:54:54;;;;;;;6.15;3.90;;;;;;;17.74;nan;100152.56;4968919;28;20042;-72
2022/06/23 02:57:43;;;;;;;3.72;3.28;;;;;;;17.68;nan;100150.72;4989172;28;20035;-71
2022/06/23 03:00:27;;;;;;;4.03;3.63;;;;;;;17.62;nan;100155.84;4990900;28;20385;-72
2022/06/23 03:03:01;;;;;;;4.40;3.58;;;;;;;17.58;nan;100151.94;4992113;28;20117;-71
2022/06/23 03:05:35;;;;;;;4.85;4.20;;;;;;;17.54;nan;100163.25;4984846;28;20408;-72
2022/06/23 03:08:23;;;;;;;5.40;4.45;;;;;;;17.54;nan;100149.88;4989654;28;20154;-71
2022/06/23 03:10:56;;;;;;;5.97;5.07;;;;;;;17.57;nan;100154.84;4988137;28;20053;-72
2022/06/23 03:13:33;;;;;;;6.25;4.78;;;;;;;17.59;nan;100158.97;4989403;28;20054;-71
2022/06/23 03:16:28;;;;;;;7.05;5.53;;;;;;;17.63;nan;100156.69;4990182;28;20046;-72
2022/06/23 03:18:59;;;;;;;10.70;7.10;;;;;;;17.71;nan;100159.16;4988829;28;20039;-71
2022/06/23 03:21:36;;;;;;;6.70;5.47;;;;;;;17.75;nan;100163.03;4983869;28;20525;-72
2022/06/23 03:24:07;;;;;;;5.65;4.75;;;;;;;17.76;nan;100161.22;4988738;28;20519;-72
2022/06/23 03:26:52;;;;;;;5.65;4.85;;;;;;;17.78;nan;100164.47;4988782;28;20125;-72
2022/06/23 03:29:24;;;;;;;7.43;5.78;;;;;;;17.82;nan;100158.53;4990820;28;20038;-72
2022/06/23 03:31:55;;;;;;;9.07;6.85;;;;;;;17.88;nan;100164.09;4988040;28;20065;-72
2022/06/23 03:34:42;;;;;;;;;;;;;;;17.88;nan;100169.44;4988803;28;20046;-71
2022/06/23 03:37:14;;;;;;;8.38;7.00;;;;;;;17.93;nan;100165.13;4991538;28;19964;-73
2022/06/23 03:42:43;;;;;;;6.95;5.38;;;;;;;17.99;nan;100166.13;4987776;28;20045;-73
2022/06/23 03:45:17;;;;;;;5.07;4.20;;;;;;;18.00;nan;100170.44;4989324;28;20042;-73
2022/06/23 03:47:55;;;;;;;3.90;3.50;;;;;;;17.98;nan;100176.00;4988283;28;20038;-73
2022/06/23 03:51:02;;;;;;;3.97;3.38;;;;;;;17.97;nan;100165.50;4987758;28;20399;-73
2022/06/23 03:53:32;;;;;;;4.13;3.45;;;;;;;18.01;nan;100172.09;4983955;28;20050;-73
2022/06/23 03:56:11;;;;;;;4.53;3.70;;;;;;;18.02;nan;100166.53;4987535;28;20030;-73
2022/06/23 03:58:58;;;;;;;5.45;4.10;;;;;;;18.07;nan;100175.75;4988566;28;20038;-73
2022/06/23 04:01:40;;;;;;;4.57;3.63;;;;;;;18.08;nan;100182.78;4987413;28;20081;-73
2022/06/23 04:04:19;;;;;;;5.07;4.05;;;;;;;18.12;nan;100189.38;4985765;28;20038;-73
2022/06/23 04:06:53;;;;;;;4.80;4.20;;;;;;;18.14;nan;100189.94;4989374;28;20296;-74
2022/06/23 04:09:25;;;;;;;5.00;4.47;;;;;;;18.15;nan;100186.25;4987643;28;20496;-73
2022/06/23 04:11:59;;;;;;;4.55;3.67;;;;;;;18.16;nan;100193.25;4987679;28;20038;-73
2022/06/23 04:14:33;;;;;;;4.70;4.22;;;;;;;18.16;nan;100185.22;4982989;28;20030;-73
2022/06/23 04:17:18;;;;;;;5.28;4.00;;;;;;;18.17;nan;100189.56;4987159;28;20110;-73
2022/06/23 04:19:49;;;;;;;5.88;5.25;;;;;;;18.18;nan;100183.16;4987536;28;20053;-74
2022/06/23 04:22:21;;;;;;;6.40;5.15;;;;;;;18.20;nan;100189.94;4987346;28;20050;-73
2022/06/23 04:24:50;;;;;;;7.00;6.20;;;;;;;18.20;nan;100189.13;4986402;28;20474;-74
2022/06/23 04:27:27;;;;;;;6.55;5.70;;;;;;;18.24;nan;100193.03;4988718;28;20553;-73
2022/06/23 04:29:55;;;;;;;7.97;6.18;;;;;;;18.27;nan;100203.31;4987666;28;20053;-73
2022/06/23 04:32:25;;;;;;;7.25;6.05;;;;;;;18.32;nan;100200.81;4987142;28;20034;-73
2022/06/23 04:34:58;;;;;;;7.53;6.25;;;;;;;18.34;nan;100204.13;4987272;28;20504;-73
2022/06/23 04:37:51;;;;;;;6.68;5.68;;;;;;;18.38;nan;100208.03;4988770;28;20420;-73
2022/06/23 04:40:22;;;;;;;8.00;5.57;;;;;;;18.43;nan;100205.53;4969711;28;20049;-73
2022/06/23 04:42:53;;;;;;;7.72;6.03;;;;;;;18.50;nan;100213.53;4990000;28;20097;-74
2022/06/23 04:45:39;;;;;;;5.90;4.75;;;;;;;18.59;nan;100214.09;4987252;28;20041;-73
2022/06/23 04:48:19;;;;;;;4.57;4.10;;;;;;;18.67;nan;100216.56;4987154;28;20587;-73
2022/06/23 04:50:59;;;;;;;4.57;4.05;;;;;;;18.78;nan;100217.78;4988582;28;20042;-73
2022/06/23 04:53:46;;;;;;;5.13;4.20;;;;;;;18.89;nan;100222.47;4987139;28;20069;-73
2022/06/23 04:56:17;;;;;;;5.72;5.13;;;;;;;18.99;nan;100222.81;4988147;28;20041;-73
2022/06/23 04:58:50;;;;;;;6.60;5.85;;;;;;;19.07;nan;100221.75;4988291;28;20042;-73
2022/06/23 05:01:19;;;;;;;8.48;6.28;;;;;;;19.14;nan;100219.03;4987859;28;20038;-73
2022/06/23 05:03:49;;;;;;;7.05;6.13;;;;;;;19.21;nan;100226.00;4986763;28;20372;-73
2022/06/23 05:06:27;;;;;;;7.07;5.85;;;;;;;19.30;nan;100224.69;4971341;28;20522;-73
2022/06/23 05:08:53;;;;;;;9.40;6.63;;;;;;;19.39;nan;100221.75;4986913;28;20042;-73
2022/06/23 05:11:44;;;;;;;9.98;7.75;;;;;;;19.40;nan;100218.03;4988306;28;20089;-74
2022/06/23 05:14:20;;;;;;;7.18;6.05;;;;;;;19.49;nan;100225.59;4986897;28;20035;-73
2022/06/23 05:16:51;;;;;;;6.35;5.18;;;;;;;19.59;nan;100222.41;4988146;28;20085;-73
2022/06/23 05:19:27;;;;;;;6.95;6.25;;;;;;;19.64;nan;100224.44;4987621;28;20298;-73
2022/06/23 05:21:56;;;;;;;7.35;5.93;;;;;;;19.68;nan;100223.81;4987082;28;20030;-74
2022/06/23 05:24:38;;;;;;;9.55;7.38;;;;;;;19.75;nan;100220.28;4986864;28;20045;-73
2022/06/23 05:27:15;;;;;;;8.05;5.68;;;;;;;19.83;nan;100225.34;4987130;28;20049;-73
2022/06/23 05:30:01;;;;;;;8.27;6.32;;;;;;;19.88;nan;100222.84;4987173;28;20100;-73
2022/06/23 05:32:32;;;;;;;9.10;7.55;;;;;;;19.97;nan;100213.44;4991943;28;20108;-73
2022/06/23 05:35:12;;;;;;;7.70;5.95;;;;;;;20.12;nan;100205.88;4973574;28;20042;-73
2022/06/23 05:37:47;;;;;;;7.75;6.13;;;;;;;20.25;nan;100209.47;4993327;28;20074;-73
2022/06/23 05:40:16;;;;;;;8.73;6.40;;;;;;;20.36;nan;100214.91;4990281;28;21353;-73
2022/06/23 05:42:47;;;;;;;5.88;5.03;;;;;;;20.50;nan;100215.59;4993046;28;20040;-73
2022/06/23 05:45:27;;;;;;;9.07;6.57;;;;;;;20.67;nan;100207.78;4987023;28;20046;-73
2022/06/23 05:47:54;;;;;;;11.13;7.18;;;;;;;20.86;nan;100213.13;4972934;28;20038;-73
2022/06/23 05:50:41;;;;;;;7.53;6.50;;;;;;;21.08;nan;100208.06;4990501;28;20091;-74
2022/06/23 05:53:15;;;;;;;7.65;6.20;;;;;;;21.47;nan;100222.78;4991567;28;20034;-72
2022/06/23 05:55:50;;;;;;;7.97;5.43;;;;;;;21.97;nan;100210.78;4992445;28;20069;-73
2022/06/23 05:58:29;;;;;;;5.65;4.55;;;;;;;22.51;nan;100211.44;4990240;28;20026;-73
2022/06/23 06:01:03;;;;;;;6.82;5.55;;;;;;;22.87;nan;100212.97;4991269;28;20491;-73
2022/06/23 06:03:42;;;;;;;7.30;5.47;;;;;;;23.34;nan;100219.22;4988171;28;20042;-73
2022/06/23 06:06:08;;;;;;;5.40;4.90;;;;;;;23.76;nan;100219.66;4991104;28;20471;-72
2022/06/23 06:11:31;;;;;;;5.43;4.60;;;;;;;24.56;nan;100210.25;4990610;28;20104;-72
2022/06/23 06:13:58;;;;;;;6.25;4.90;;;;;;;25.00;nan;100212.91;4970658;28;20030;-73
2022/06/23 06:16:24;;;;;;;4.53;3.97;;;;;;;25.41;nan;100212.50;4991268;28;20034;-73
2022/06/23 06:18:51;;;;;;;9.13;6.22;;;;;;;25.67;nan;100208.13;4991449;28;20037;-72
2022/06/23 06:21:20;;;;;;;6.22;5.30;;;;;;;25.84;nan;100122.09;4990211;28;20050;-73
2022/06/23 06:23:54;;;;;;;6.22;4.15;;;;;;;26.28;nan;100115.53;4989615;28;20045;-73
2022/06/23 06:26:23;;;;;;;3.58;3.20;;;;;;;26.74;nan;100126.50;4989815;28;20563;-73
2022/06/23 06:28:49;;;;;;;5.65;3.90;;;;;;;26.99;nan;100127.63;4986794;28;20045;-74
2022/06/23 06:31:35;;;;;;;7.88;3.65;;;;;;;27.12;nan;100118.94;4989829;28;20038;-73
2022/06/23 06:34:21;;;;;;;4.72;3.28;;;;;;;27.58;nan;100175.13;4972987;28;20030;-73
2022/06/23 06:36:49;;;;;;;6.30;4.72;;;;;;;27.86;nan;100135.72;4989387;28;20030;-74
2022/06/23 06:39:29;;;;;;;8.07;5.45;;;;;;;28.03;nan;100149.81;4987589;28;20034;-73
2022/06/23 06:42:03;;;;;;;6.38;4.45;;;;;;;28.30;nan;100154.06;4990006;28;20031;-73
2022/06/23 06:44:30;;;;;;;8.90;6.75;;;;;;;28.21;nan;100150.28;4991712;28;20053;-73
2022/06/23 06:46:56;;;;;;;9.27;7.43;;;;;;;28.05;nan;100150.34;4988905;28;20061;-74
2022/06/23 06:49:24;;;;;;;10.07;6.28;;;;;;;27.87;nan;100151.75;4992199;28;20041;-73
2022/06/23 06:51:52;;;;;;;9.63;6.47;;;;;;;27.45;nan;100203.66;4974617;28;20113;-73
2022/06/23 06:54:50;;;;;;;6.88;4.82;;;;;;;27.36;nan;100270.47;4991273;28;20439;-73
2022/06/23 06:57:26;;;;;;;5.88;4.00;;;;;;;27.69;nan;100239.25;4971906;28;20142;-72
2022/06/23 07:00:11;;;;;;;5.85;4.10;;;;;;;28.12;nan;100239.75;4992492;28;20044;-73
2022/06/23 07:02:42;;;;;;;7.50;5.00;;;;;;;28.33;nan;100235.88;4974191;28;20030;-73
2022/06/23 07:05:18;;;;;;;;;;;;;;;28.44;nan;100236.66;4992718;28;20103;-73
2022/06/23 07:07:48;;;;;;;7.68;4.60;;;;;;;28.76;nan;100243.63;4989133;28;19922;-73
2022/06/23 07:10:18;;;;;;;4.78;3.70;;;;;;;28.94;nan;100244.91;4988541;28;20042;-74
2022/06/23 07:12:53;;;;;;;6.43;4.45;;;;;;;29.05;nan;100238.28;4994220;28;20257;-73
2022/06/23 07:15:46;;;;;;;5.97;4.18;;;;;;;29.02;nan;100233.41;4990900;28;20166;-74
2022/06/23 07:18:30;;;;;;;7.93;4.03;;;;;;;28.91;nan;100229.94;4988457;28;20051;-73
2022/06/23 07:21:21;;;;;;;8.40;4.57;;;;;;;28.76;nan;100225.38;4969249;28;20080;-73
2022/06/23 07:23:56;;;;;;;5.53;4.00;;;;;;;28.88;nan;100219.59;4990542;28;20581;-73
2022/06/23 07:26:24;;;;;;;6.95;3.92;;;;;;;29.16;nan;100217.28;4981062;28;20056;-72
2022/06/23 07:28:55;;;;;;;4.97;3.75;;;;;;;29.55;nan;100209.06;4990673;28;20452;-73
2022/06/23 07:31:28;;;;;;;5.95;3.92;;;;;;;29.85;nan;100209.91;4994650;28;20038;-73
2022/06/23 07:34:00;;;;;;;4.05;2.90;;;;;;;30.18;nan;100201.94;4976707;28;20034;-73
2022/06/23 07:36:33;;;;;;;8.05;4.38;;;;;;;30.38;nan;100206.34;4988969;28;20053;-74
2022/06/23 07:39:05;;;;;;;6.68;3.63;;;;;;;30.41;nan;100205.75;4989852;28;20101;-73
2022/06/23 07:41:45;;;;;;;5.03;3.30;;;;;;;30.71;nan;100206.47;4989488;28;20036;-72
2022/06/23 07:44:39;;;;;;;4.75;2.97;;;;;;;31.04;nan;100202.72;4996700;28;20406;-73
2022/06/23 07:47:05;;;;;;;4.22;2.78;;;;;;;31.34;nan;100197.88;4981190;28;20096;-72
2022/06/23 07:49:33;;;;;;;5.30;3.47;;;;;;;31.68;nan;100202.25;4992103;28;20035;-73
2022/06/23 07:52:00;;;;;;;5.13;3.40;;;;;;;31.98;nan;100200.91;4988023;28;20536;-73
2022/06/23 07:54:26;;;;;;;5.10;3.88;;;;;;;32.31;nan;100201.59;4988198;28;20570;-74
2022/06/23 07:56:54;;;;;;;5.80;4.20;;;;;;;32.38;nan;100193.78;4989016;28;20422;-72
2022/06/23 07:59:26;;;;;;;5.07;2.90;;;;;;;32.87;nan;100196.03;4971385;28;20042;-72
2022/06/23 08:01:54;;;;;;;;;;;;;;;33.22;nan;100203.44;4988627;28;20045;-73
2022/06/23 08:04:24;;;;;;;7.83;3.63;;;;;;;33.42;nan;100204.06;4989206;28;19929;-73
2022/06/23 08:06:50;;;;;;;5.75;3.00;;;;;;;33.47;nan;100205.88;4989308;28;20367;-72
2022/06/23 08:09:29;;;;;;;6.32;3.80;;;;;;;33.57;nan;100208.38;4987581;28;20048;-72
2022/06/23 08:17:58;;;;;;;4.40;3.15;;;;;;;34.01;nan;100210.19;4976449;28;20096;-74
2022/06/23 08:20:25;;;;;;;4.35;3.22;;;;;;;34.18;nan;100201.25;4986239;28;20082;-74
2022/06/23 08:22:54;;;;;;;5.18;3.53;;;;;;;34.39;nan;100200.66;4988315;28;20033;-73
2022/06/23 08:25:20;;;;;;;7.57;4.45;;;;;;;33.97;nan;100201.00;4988126;28;20175;-74
2022/06/23 08:27:47;;;;;;;8.00;4.25;;;;;;;34.01;nan;100195.66;4970485;28;20125;-73
2022/06/23 08:30:16;;;;;;;6.13;3.75;;;;;;;34.25;nan;100195.28;4987458;28;20038;-73
2022/06/23 08:32:45;;;;;;;8.43;4.35;;;;;;;34.20;nan;100181.72;4988243;28;20042;-73
2022/06/23 08:35:27;;;;;;;7.30;4.10;;;;;;;34.21;nan;100194.31;4986562;28;20041;-73
2022/06/23 08:38:00;;;;;;;8.00;3.90;;;;;;;34.26;nan;100189.47;4982701;28;20031;-72
2022/06/23 08:41:02;;;;;;;8.88;4.05;;;;;;;34.57;nan;100188.56;4987213;28;20112;-74
2022/06/23 08:43:56;;;;;;;9.30;3.92;;;;;;;34.85;nan;100188.31;4958772;28;20550;-73
2022/06/23 08:47:04;;;;;;;7.70;3.40;;;;;;;35.33;nan;100183.72;4986046;28;20451;-73
2022/06/23 08:49:37;;;;;;;7.40;4.10;;;;;;;35.23;nan;100182.13;4986461;28;20256;-73
2022/06/23 08:52:14;;;;;;;8.55;3.92;;;;;;;35.12;nan;100187.19;4988776;28;20026;-73
2022/06/23 08:54:49;;;;;;;7.30;3.95;;;;;;;35.48;nan;100186.78;4987664;28;20045;-74
2022/06/23 08:57:24;;;;;;;5.57;3.80;;;;;;;35.57;nan;100183.22;4988497;28;20039;-73
2022/06/23 08:59:55;;;;;;;6.60;3.85;;;;;;;35.85;nan;100180.84;4986124;28;20057;-73
2022/06/23 09:02:35;;;;;;;6.65;4.63;;;;;;;36.08;nan;100178.63;4986327;28;20041;-73
2022/06/23 09:05:13;;;;;;;4.82;3.20;;;;;;;36.58;nan;100183.41;4985031;28;20414;-73
2022/06/23 09:07:38;;;;;;;;;;;;;;;36.09;nan;100172.84;4988292;28;20105;-73
2022/06/23 09:10:18;;;;;;;7.07;3.80;;;;;;;36.28;nan;100168.81;4988416;28;20000;-74
2022/06/23 09:12:54;;;;;;;5.83;3.47;;;;;;;36.96;nan;100165.91;4987003;28;20046;-74
2022/06/23 09:15:43;;;;;;;4.45;2.92;;;;;;;37.93;nan;100149.94;4969312;28;20108;-74
2022/06/23 09:18:27;;;;;;;4.57;2.30;;;;;;;38.60;nan;100161.50;4982469;28;20410;-73
2022/06/23 09:21:24;;;;;;;4.43;3.28;;;;;;;38.93;nan;100154.97;4985488;28;20129;-73
2022/06/23 09:24:13;;;;;;;4.82;3.40;;;;;;;39.10;nan;100148.31;4987643;28;20047;-73
2022/06/23 09:26:56;;;;;;;5.68;3.17;;;;;;;39.22;nan;100151.00;4987372;28;20041;-73
2022/06/23 09:29:29;;;;;;;5.47;2.90;;;;;;;39.62;nan;100150.06;4985818;28;20129;-73
2022/06/23 09:32:07;;;;;;;6.50;3.30;;;;;;;39.56;nan;100137.66;4987469;28;20038;-74
2022/06/23 09:35:11;;;;;;;6.38;3.95;;;;;;;39.90;nan;100149.97;4987075;28;20053;-74
2022/06/23 09:37:42;;;;;;;5.13;3.30;;;;;;;40.16;nan;100154.13;4955247;28;20415;-73
2022/06/23 09:40:31;;;;;;;5.85;2.72;;;;;;;40.56;nan;100153.84;4986057;28;20521;-74
2022/06/23 09:43:26;;;;;;;7.53;2.63;;;;;;;40.86;nan;100159.63;4989455;28;20529;-74
2022/06/23 09:46:05;;;;;;;4.65;2.75;;;;;;;40.83;nan;100148.44;4986271;28;21310;-74
2022/06/23 09:48:39;;;;;;;4.38;2.88;;;;;;;40.55;nan;100144.72;4984784;28;20125;-74
2022/06/23 09:51:26;;;;;;;6.68;3.22;;;;;;;40.12;nan;100140.19;4987103;28;20137;-74
2022/06/23 09:53:57;;;;;;;6.57;3.70;;;;;;;40.20;nan;100135.63;4986641;28;20033;-74
2022/06/23 09:56:33;;;;;;;6.70;2.92;;;;;;;39.65;nan;100136.31;4987009;28;20061;-73
2022/06/23 09:59:09;;;;;;;8.15;3.28;;;;;;;40.26;nan;100131.41;4987168;28;20043;-74
2022/06/23 10:02:02;;;;;;;3.55;2.38;;;;;;;40.87;nan;100133.50;4986390;28;20089;-74
2022/06/23 10:04:55;;;;;;;9.02;3.58;;;;;;;41.63;nan;100130.13;4985541;28;20109;-74
2022/06/23 10:07:49;;;;;;;5.68;3.47;;;;;;;41.99;nan;100125.94;4984070;28;20105;-74
2022/06/23 10:10:38;;;;;;;6.43;2.67;;;;;;;42.01;nan;100128.34;4975354;28;20035;-74
2022/06/23 10:13:22;;;;;;;5.97;2.72;;;;;;;42.31;nan;100120.03;4987451;28;20043;-74
2022/06/23 10:16:03;;;;;;;6.28;2.47;;;;;;;42.64;nan;100122.03;4990226;28;20117;-74
2022/06/23 10:18:41;;;;;;;11.50;3.00;;;;;;;42.89;nan;100127.09;4986829;28;20038;-74
2022/06/23 10:21:37;;;;;;;6.88;2.40;;;;;;;42.94;nan;100120.38;4990599;28;20034;-74
2022/06/23 10:24:36;;;;;;;7.35;2.72;;;;;;;43.40;nan;100118.03;4990232;28;20038;-74
2022/06/23 10:27:43;;;;;;;5.80;2.53;;;;;;;43.44;nan;100116.09;4984154;28;20125;-74
2022/06/23 10:30:20;;;;;;;6.45;2.45;;;;;;;43.73;nan;100124.69;4967991;28;20327;-74
2022/06/23 10:33:18;;;;;;;5.07;2.38;;;;;;;43.81;nan;100109.59;4988953;28;20037;-74
2022/06/23 10:36:14;;;;;;;5.97;2.22;;;;;;;42.97;nan;100108.50;4952573;28;20050;-74
2022/06/23 10:38:57;;;;;;;7.55;2.40;;;;;;;43.88;nan;100101.28;4989261;28;20472;-74
2022/06/23 10:41:50;;;;;;;5.85;2.42;;;;;;;44.39;nan;100104.38;4989025;28;20085;-74
2022/06/23 10:44:36;;;;;;;7.97;2.70;;;;;;;44.74;nan;100098.09;4994730;28;20038;-74
2022/06/23 10:47:08;;;;;;;3.97;1.83;;;;;;;45.49;nan;100097.44;4990675;28;20038;-74
2022/06/23 10:49:50;;;;;;;5.90;1.80;;;;;;;46.09;nan;100090.94;4989079;28;20038;-75
2022/06/23 10:52:31;;;;;;;4.03;1.77;;;;;;;46.76;nan;100093.84;4990387;28;20034;-73
2022/06/23 10:55:22;;;;;;;5.45;2.22;;;;;;;46.08;nan;100083.75;4990529;28;20040;-73
2022/06/23 10:58:09;;;;;;;4.80;2.05;;;;;;;45.25;nan;100073.91;4988415;28;20042;-74
2022/06/23 11:00:57;;;;;;;5.57;2.38;;;;;;;45.15;nan;100076.28;4990318;28;20039;-75
2022/06/23 11:03:31;;;;;;;4.25;2.58;;;;;;;44.71;nan;100077.38;4971814;28;20375;-74
2022/06/23 11:06:13;;;;;;;5.50;2.25;;;;;;;44.69;nan;100081.75;4984477;28;20042;-74
2022/06/23 11:09:02;;;;;;;7.00;2.30;;;;;;;45.18;nan;100079.47;4986807;28;20287;-74
2022/06/23 11:11:35;;;;;;;6.35;2.33;;;;;;;43.95;nan;100069.09;4987134;28;20361;-74
2022/06/23 11:14:31;;;;;;;4.82;2.15;;;;;;;44.90;nan;100072.66;4989503;28;20061;-74
2022/06/23 11:17:08;;;;;;;5.10;2.15;;;;;;;45.70;nan;100066.69;4988077;28;20045;-75
2022/06/23 11:19:52;;;;;;;3.97;1.98;;;;;;;46.46;nan;100055.22;4987264;28;20463;-74
2022/06/23 11:22:58;;;;;;;5.45;2.20;;;;;;;46.03;nan;100058.22;4984716;28;20403;-74
2022/06/23 11:25:41;;;;;;;7.00;2.70;;;;;;;41.37;nan;100055.94;4983235;28;20121;-74
2022/06/23 11:28:23;;;;;;;5.38;2.65;;;;;;;38.69;nan;100048.84;4991099;28;20400;-73
2022/06/23 11:31:33;;;;;;;7.72;2.70;;;;;;;39.41;nan;100040.47;4986679;28;20034;-73
2022/06/23 11:34:36;;;;;;;7.28;2.15;;;;;;;41.97;nan;100039.38;4982974;28;20070;-73
2022/06/23 11:37:22;;;;;;;5.97;2.58;;;;;;;43.59;nan;100035.47;4987062;28;20061;-74
2022/06/23 11:40:02;;;;;;;8.30;2.55;;;;;;;44.82;nan;100038.38;4971900;28;20050;-74
2022/06/23 11:42:45;;;;;;;6.75;2.60;;;;;;;45.91;nan;100021.13;4987495;28;20034;-74
2022/06/23 11:45:19;;;;;;;6.07;2.70;;;;;;;45.33;nan;100023.25;4988154;28;20039;-74
2022/06/23 11:48:20;;;;;;;7.22;2.72;;;;;;;45.19;nan;100028.84;4988382;28;20053;-74
2022/06/23 11:50:57;;;;;;;6.68;2.75;;;;;;;45.44;nan;100025.22;4987587;28;20046;-74
2022/06/23 11:53:34;;;;;;;7.18;2.15;;;;;;;46.08;nan;100021.47;4988509;28;20049;-74
2022/06/23 11:56:13;;;;;;;5.70;2.00;;;;;;;47.08;nan;100014.44;4988711;28;20046;-74
2022/06/23 11:59:12;;;;;;;5.80;2.95;;;;;;;47.60;nan;100011.53;4988111;28;20054;-73
2022/06/23 12:01:37;;;;;;;5.68;2.35;;;;;;;47.25;nan;100010.72;4988636;28;20065;-75
2022/06/23 12:04:30;;;;;;;4.53;2.27;;;;;;;47.29;nan;100010.66;4989734;28;20427;-74
2022/06/23 12:07:20;;;;;;;6.95;2.20;;;;;;;47.58;nan;100008.38;4989360;28;20290;-74
2022/06/23 12:10:07;;;;;;;5.00;1.90;;;;;;;44.25;nan;100011.13;4987191;28;20035;-74
2022/06/23 12:12:35;;;;;;;6.53;2.20;;;;;;;42.00;nan;99997.00;4986859;28;20038;-73
2022/06/23 12:15:04;;;;;;;5.38;2.10;;;;;;;41.85;nan;99997.16;4986943;28;20049;-74
2022/06/23 12:17:34;;;;;;;4.85;1.80;;;;;;;41.91;nan;99996.44;4987936;28;20034;-74
2022/06/23 12:20:30;;;;;;;6.38;2.30;;;;;;;42.31;nan;99991.38;4988861;28;20046;-74
2022/06/23 12:23:18;;;;;;;5.85;2.22;;;;;;;42.94;nan;99995.22;4981840;28;20054;-74
2022/06/23 12:26:03;;;;;;;3.00;1.70;;;;;;;43.54;nan;99982.94;4989399;28;20070;-74
2022/06/23 12:28:50;;;;;;;4.95;1.90;;;;;;;43.09;nan;99985.78;4990440;28;20410;-74
2022/06/23 12:31:27;;;;;;;5.38;2.25;;;;;;;41.65;nan;99961.22;4980442;28;20167;-74
2022/06/23 12:33:57;;;;;;;6.38;2.20;;;;;;;39.77;nan;99972.09;4990591;28;20144;-73
2022/06/23 12:36:37;;;;;;;4.72;2.10;;;;;;;39.02;nan;99973.09;4990653;28;20038;-74
2022/06/23 12:39:14;;;;;;;6.20;2.05;;;;;;;38.61;nan;99964.94;5006368;28;20061;-73
2022/06/23 12:41:49;;;;;;;6.55;2.70;;;;;;;38.60;nan;99899.81;4987568;28;20081;-74
2022/06/23 12:44:37;;;;;;;5.93;2.30;;;;;;;37.94;nan;99875.50;4985270;28;20050;-74
2022/06/23 12:47:29;;;;;;;7.10;2.55;;;;;;;37.38;nan;99868.00;4988484;28;20062;-74
2022/06/23 12:50:30;;;;;;;4.75;2.50;;;;;;;36.96;nan;99871.81;4987454;28;20038;-73
2022/06/23 12:53:15;;;;;;;5.72;2.28;;;;;;;36.98;nan;99855.72;4983050;28;20030;-74